createdAt,value
2022-12-01T00:02:05.792Z,102934.59
2022-12-01T00:04:32.385Z,102942.03
2022-12-01T00:06:58.933Z,102932.09
2022-12-01T00:09:44.067Z,102931.28
2022-12-01T00:12:10.390Z,102936.34
2022-12-01T00:14:36.688Z,102932.44
2022-12-01T00:17:04.835Z,102935.66
2022-12-01T00:19:31.210Z,102933.59
2022-12-01T00:21:57.565Z,102936.22
2022-12-01T00:24:24.487Z,102929.91
2022-12-01T00:26:50.854Z,102929.72
2022-12-01T00:29:17.166Z,102935.78
2022-12-01T00:31:43.500Z,102930.50
2022-12-01T00:34:22.617Z,102925.81
2022-12-01T00:36:49.387Z,102934.28
2022-12-01T00:39:15.750Z,102933.25
2022-12-01T00:41:42.116Z,102934.06
2022-12-01T00:44:08.435Z,102929.59
2022-12-01T00:46:34.792Z,102928.56
2022-12-01T00:49:01.274Z,102926.72
2022-12-01T00:51:27.603Z,102921.22
2022-12-01T00:53:53.922Z,102930.72
2022-12-01T00:56:21.166Z,102928.69
2022-12-01T00:58:47.532Z,102930.28
2022-12-01T01:01:14.014Z,102931.09
2022-12-01T01:03:40.420Z,102927.41
2022-12-01T01:06:10.271Z,102937.94
2022-12-01T01:08:36.911Z,102933.47
2022-12-01T01:11:04.157Z,102936.13
2022-12-01T01:13:30.570Z,102941.19
2022-12-01T01:16:06.393Z,102946.22
2022-12-01T01:18:33.020Z,102948.84
2022-12-01T01:21:07.897Z,102951.50
2022-12-01T01:23:34.695Z,102952.28
2022-12-01T01:26:02.953Z,102947.81
2022-12-01T01:28:31.195Z,102945.75
2022-12-01T01:30:58.064Z,102942.53
2022-12-01T01:33:24.887Z,102946.78
2022-12-01T01:35:53.074Z,102942.53
2022-12-01T01:38:19.426Z,102948.38
2022-12-01T01:40:46.623Z,102944.75
2022-12-01T01:43:16.493Z,102950.56
2022-12-01T01:45:43.211Z,102955.06
2022-12-01T01:48:12.996Z,102955.84
2022-12-01T01:50:39.810Z,102951.38
2022-12-01T01:53:10.636Z,102949.31
2022-12-01T01:55:37.790Z,102945.88
2022-12-01T01:58:08.295Z,102960.69
2022-12-01T02:00:35.903Z,102958.59
2022-12-01T02:03:03.151Z,102964.44
2022-12-01T02:05:32.521Z,102957.56
2022-12-01T02:08:00.338Z,102956.53
2022-12-01T02:11:04.319Z,102954.94
2022-12-01T02:13:48.053Z,102948.84
2022-12-01T02:16:24.515Z,102944.38
2022-12-01T02:19:12.675Z,102949.66
2022-12-01T02:21:51.070Z,102944.38
2022-12-01T02:24:34.421Z,102929.34
2022-12-01T02:27:28.374Z,102937.03
2022-12-01T02:30:17.038Z,102940.50
2022-12-01T02:32:54.947Z,102951.84
2022-12-01T02:35:32.370Z,102938.88
2022-12-01T02:38:28.745Z,102939.09
2022-12-01T02:41:23.287Z,102934.63
2022-12-01T02:44:03.349Z,102935.44
2022-12-01T02:46:37.380Z,102937.28
2022-12-01T02:49:10.049Z,102945.97
2022-12-01T02:51:39.927Z,102955.72
2022-12-01T02:54:07.070Z,102949.66
2022-12-01T02:56:33.410Z,102941.97
2022-12-01T02:58:59.786Z,102951.72
2022-12-01T03:01:50.507Z,102955.16
2022-12-01T03:04:29.841Z,102960.22
2022-12-01T03:07:12.783Z,102949.66
2022-12-01T03:09:52.808Z,102954.94
2022-12-01T03:12:43.614Z,102954.13
2022-12-01T03:15:25.023Z,102948.84
2022-12-01T03:18:22.998Z,102954.13
2022-12-01T03:20:59.326Z,102953.34
2022-12-01T03:23:31.247Z,102954.94
2022-12-01T03:26:01.751Z,102949.66
2022-12-01T03:28:33.023Z,102948.06
2022-12-01T03:31:07.919Z,102946.22
2022-12-01T03:33:43.767Z,102941.19
2022-12-01T03:36:19.438Z,102953.34
2022-12-01T03:38:51.239Z,102949.66
2022-12-01T03:41:22.622Z,102949.91
2022-12-01T03:43:56.274Z,102949.66
2022-12-01T03:46:41.003Z,102942.78
2022-12-01T03:49:09.607Z,102946.22
2022-12-01T03:52:06.938Z,102948.06
2022-12-01T03:55:04.814Z,102951.50
2022-12-01T03:57:55.526Z,102953.34
2022-12-01T04:00:22.110Z,102945.41
2022-12-01T04:02:48.923Z,102948.06
2022-12-01T04:05:15.496Z,102953.34
2022-12-01T04:07:41.888Z,102961.47
2022-12-01T04:10:08.776Z,102955.84
2022-12-01T04:12:35.116Z,102947.38
2022-12-01T04:15:11.054Z,102944.16
2022-12-01T04:17:37.568Z,102945.19
2022-12-01T04:20:06.917Z,102946.22
2022-12-01T04:22:33.891Z,102960.44
2022-12-01T04:25:00.398Z,102953.31
2022-12-01T04:27:26.714Z,102960.44
2022-12-01T04:29:53.047Z,102955.16
2022-12-01T04:32:19.478Z,102957.81
2022-12-01T04:34:45.789Z,102964.09
2022-12-01T04:37:12.516Z,102959.63
2022-12-01T04:39:38.939Z,102963.06
2022-12-01T04:42:05.504Z,102969.38
2022-12-01T04:44:35.053Z,102964.91
2022-12-01T04:47:02.592Z,102958.84
2022-12-01T04:49:28.993Z,102954.38
2022-12-01T04:51:55.532Z,102955.16
2022-12-01T04:54:22.239Z,102957.00
2022-12-01T04:56:48.695Z,102959.63
2022-12-01T04:59:15.304Z,102956.19
2022-12-01T05:01:41.744Z,102951.94
2022-12-01T05:04:12.178Z,102957.22
2022-12-01T05:06:38.558Z,102949.28
2022-12-01T05:09:05.259Z,102955.59
2022-12-01T05:11:32.538Z,102948.16
2022-12-01T05:13:59.546Z,102952.41
2022-12-01T05:16:29.889Z,102962.72
2022-12-01T05:19:17.163Z,102960.88
2022-12-01T05:21:45.382Z,102964.19
2022-12-01T05:24:13.184Z,102967.28
2022-12-01T05:26:40.358Z,102961.44
2022-12-01T05:29:06.952Z,102959.50
2022-12-01T05:31:33.338Z,102963.03
2022-12-01T05:33:59.917Z,102969.56
2022-12-01T05:36:26.367Z,102971.81
2022-12-01T05:38:52.780Z,102966.78
2022-12-01T05:41:19.259Z,102976.28
2022-12-01T05:43:45.849Z,102973.66
2022-12-01T05:46:12.321Z,102971.81
2022-12-01T05:48:38.746Z,102968.19
2022-12-01T05:51:13.503Z,102968.19
2022-12-01T05:53:40.210Z,102963.72
2022-12-01T05:56:08.223Z,102966.34
2022-12-01T05:58:35.536Z,102965.09
2022-12-01T06:01:02.244Z,102968.31
2022-12-01T06:03:28.574Z,102969.91
2022-12-01T06:05:54.977Z,102957.97
2022-12-01T06:08:21.443Z,102965.75
2022-12-01T06:10:48.029Z,102952.25
2022-12-01T06:13:14.646Z,102951.53
2022-12-01T06:15:41.086Z,102957.50
2022-12-01T06:18:07.626Z,102955.97
2022-12-01T06:20:33.954Z,102963.72
2022-12-01T06:23:00.374Z,102958.00
2022-12-01T06:25:26.739Z,102970.78
2022-12-01T06:27:58.108Z,102969.63
2022-12-01T06:30:25.507Z,102972.16
2022-12-01T06:32:51.859Z,102973.84
2022-12-01T06:35:18.326Z,102973.31
2022-12-01T06:37:44.711Z,102972.38
2022-12-01T06:40:11.642Z,102981.16
2022-12-01T06:42:37.989Z,102980.22
2022-12-01T06:45:05.485Z,102981.09
2022-12-01T06:47:31.843Z,102988.03
2022-12-01T06:49:58.177Z,102978.75
2022-12-01T06:52:24.557Z,102979.41
2022-12-01T06:54:50.909Z,102985.34
2022-12-01T06:57:17.742Z,102984.56
2022-12-01T06:59:44.510Z,102995.97
2022-12-01T07:02:11.737Z,102993.00
2022-12-01T07:04:38.149Z,103000.06
2022-12-01T07:07:07.786Z,103000.72
2022-12-01T07:09:34.530Z,102994.84
2022-12-01T07:12:00.880Z,103005.25
2022-12-01T07:14:27.865Z,103003.59
2022-12-01T07:16:56.472Z,103002.63
2022-12-01T07:19:25.240Z,103006.47
2022-12-01T07:21:51.682Z,103007.09
2022-12-01T07:24:18.026Z,103020.47
2022-12-01T07:26:44.356Z,103017.69
2022-12-01T07:29:10.970Z,103025.78
2022-12-01T07:31:38.386Z,103030.44
2022-12-01T07:34:05.666Z,103030.66
2022-12-01T07:36:32.066Z,103033.28
2022-12-01T07:38:58.469Z,103035.91
2022-12-01T07:41:24.942Z,103038.53
2022-12-01T07:43:51.300Z,103046.06
2022-12-01T07:46:24.557Z,103045.47
2022-12-01T07:48:55.522Z,103046.25
2022-12-01T07:51:24.591Z,103046.25
2022-12-01T07:53:52.071Z,103039.97
2022-12-01T07:56:20.337Z,103046.44
2022-12-01T07:58:47.192Z,103042.13
2022-12-01T08:01:16.616Z,103050.41
2022-12-01T08:03:44.053Z,103049.34
2022-12-01T08:06:11.307Z,103059.16
2022-12-01T08:13:42.140Z,103047.59
2022-12-01T08:16:11.593Z,103053.22
2022-12-01T08:18:39.648Z,103047.31
2022-12-01T08:21:07.688Z,103056.94
2022-12-01T08:23:34.280Z,103056.06
2022-12-01T08:26:06.647Z,103063.13
2022-12-01T08:28:36.050Z,103059.81
2022-12-01T08:31:17.758Z,103063.63
2022-12-01T08:33:44.918Z,103061.38
2022-12-01T08:36:11.278Z,103062.31
2022-12-01T08:38:38.060Z,103062.25
2022-12-01T08:41:07.375Z,103071.88
2022-12-01T08:43:56.563Z,103074.91
2022-12-01T08:46:22.184Z,103074.22
2022-12-01T08:48:48.594Z,103065.44
2022-12-01T08:51:18.253Z,103066.59
2022-12-01T08:53:48.633Z,103058.03
2022-12-01T08:56:21.321Z,103070.31
2022-12-01T08:58:48.184Z,103068.63
2022-12-01T09:01:16.229Z,103067.16
2022-12-01T09:03:43.704Z,103064.66
2022-12-01T09:06:13.325Z,103067.63
2022-12-01T09:08:41.170Z,103062.72
2022-12-01T09:11:11.378Z,103067.09
2022-12-01T09:13:39.463Z,103067.22
2022-12-01T09:16:10.170Z,103064.72
2022-12-01T09:18:36.619Z,103065.91
2022-12-01T09:21:21.667Z,103067.03
2022-12-01T09:23:48.730Z,103067.97
2022-12-01T09:26:19.009Z,103064.44
2022-12-01T09:28:52.410Z,103068.44
2022-12-01T09:31:20.562Z,103064.78
2022-12-01T09:33:47.038Z,103072.00
2022-12-01T09:36:13.639Z,103069.13
2022-12-01T09:38:40.398Z,103058.16
2022-12-01T09:41:30.637Z,103061.47
2022-12-01T09:44:05.547Z,103062.16
2022-12-01T09:46:37.777Z,103057.47
2022-12-01T09:49:12.493Z,103060.00
2022-12-01T09:51:38.942Z,103058.03
2022-12-01T09:54:06.988Z,103053.22
2022-12-01T09:56:42.770Z,103039.34
2022-12-01T09:59:17.926Z,103035.19
2022-12-01T10:01:48.119Z,103035.88
2022-12-01T10:04:24.893Z,103029.66
2022-12-01T10:07:06.175Z,103028.66
2022-12-01T10:09:35.493Z,103018.19
2022-12-01T10:12:11.086Z,103024.72
2022-12-01T10:14:37.899Z,103017.84
2022-12-01T10:17:13.311Z,103024.97
2022-12-01T10:19:55.171Z,103034.50
2022-12-01T10:22:45.426Z,103028.75
2022-12-01T10:25:25.441Z,103038.38
2022-12-01T10:28:10.486Z,103035.75
2022-12-01T10:30:48.272Z,103035.41
2022-12-01T10:33:33.031Z,103037.78
2022-12-01T10:35:59.446Z,103034.09
2022-12-01T10:38:35.781Z,103038.88
2022-12-01T10:41:05.439Z,103037.13
2022-12-01T10:43:37.718Z,103037.38
2022-12-01T10:46:19.194Z,103044.75
2022-12-01T10:49:11.281Z,103038.06
2022-12-01T10:51:55.633Z,103042.00
2022-12-01T10:54:35.897Z,103031.66
2022-12-01T10:57:04.004Z,103031.44
2022-12-01T10:59:35.703Z,103030.63
2022-12-01T11:02:03.766Z,103036.38
2022-12-01T11:04:45.136Z,103032.38
2022-12-01T11:07:18.268Z,103036.63
2022-12-01T11:09:47.117Z,103033.72
2022-12-01T11:12:20.029Z,103021.50
2022-12-01T11:14:55.494Z,103021.38
2022-12-01T11:17:32.887Z,103024.34
2022-12-01T11:20:16.722Z,103017.06
2022-12-01T11:22:43.143Z,103017.72
2022-12-01T11:25:22.610Z,103009.16
2022-12-01T11:27:57.431Z,103007.16
2022-12-01T11:30:26.490Z,103012.06
2022-12-01T11:32:56.396Z,103005.41
2022-12-01T11:35:26.206Z,103002.28
2022-12-01T11:38:27.892Z,102999.47
2022-12-01T11:41:00.365Z,102996.13
2022-12-01T11:43:30.244Z,102993.56
2022-12-01T11:45:59.747Z,102986.09
2022-12-01T11:48:28.897Z,102995.94
2022-12-01T11:51:04.342Z,102986.31
2022-12-01T11:53:32.291Z,102988.25
2022-12-01T11:56:35.513Z,102986.41
2022-12-01T11:59:06.731Z,102971.72
2022-12-01T12:01:57.806Z,102980.28
2022-12-01T12:04:52.862Z,102975.53
2022-12-01T12:07:56.808Z,102958.69
2022-12-01T12:10:51.191Z,102965.41
2022-12-01T12:13:42.103Z,102968.75
2022-12-01T12:16:38.209Z,102961.16
2022-12-01T12:19:34.115Z,102965.50
2022-12-01T12:22:11.478Z,102959.69
2022-12-01T12:25:02.555Z,102958.69
2022-12-01T12:27:50.241Z,102950.47
2022-12-01T12:30:29.902Z,102959.69
2022-12-01T12:33:19.823Z,102957.03
2022-12-01T12:36:14.268Z,102959.94
2022-12-01T12:39:16.464Z,102960.88
2022-12-01T12:41:50.634Z,102958.47
2022-12-01T12:44:38.503Z,102960.00
2022-12-01T12:47:36.337Z,102951.19
2022-12-01T12:50:36.754Z,102945.03
2022-12-01T12:53:14.063Z,102952.28
2022-12-01T12:55:46.353Z,102943.50
2022-12-01T12:58:23.692Z,102940.59
2022-12-01T13:01:01.359Z,102941.44
2022-12-01T13:04:05.358Z,102941.13
2022-12-01T13:06:43.403Z,102936.88
2022-12-01T13:09:13.175Z,102932.13
2022-12-01T13:11:56.809Z,102935.09
2022-12-01T13:14:28.718Z,102930.19
2022-12-01T13:17:02.719Z,102936.91
2022-12-01T13:19:33.455Z,102941.16
2022-12-01T13:22:01.488Z,102936.09
2022-12-01T13:24:35.656Z,102939.16
2022-12-01T13:27:15.558Z,102928.69
2022-12-01T13:29:47.772Z,102930.53
2022-12-01T13:32:26.556Z,102933.19
2022-12-01T13:34:53.541Z,102933.19
2022-12-01T13:37:45.902Z,102922.00
2022-12-01T13:40:23.601Z,102929.84
2022-12-01T13:43:04.204Z,102925.53
2022-12-01T13:48:48.741Z,102933.91
2022-12-01T13:51:15.414Z,102927.78
2022-12-01T13:54:03.524Z,102923.81
2022-12-01T13:56:43.857Z,102928.03
2022-12-01T14:00:03.232Z,102929.03
2022-12-01T14:02:32.047Z,102925.81
2022-12-01T14:05:40.798Z,102925.19
2022-12-01T14:08:28.245Z,102915.50
2022-12-01T14:11:00.676Z,102914.88
2022-12-01T14:13:28.807Z,102911.16
2022-12-01T14:16:06.709Z,102910.38
2022-12-01T14:18:43.217Z,102908.31
2022-12-01T14:21:12.590Z,102906.94
2022-12-01T14:24:01.663Z,102910.88
2022-12-01T14:26:30.725Z,102910.78
2022-12-01T14:29:00.041Z,102908.06
2022-12-01T14:31:32.128Z,102911.97
2022-12-01T14:34:24.398Z,102907.97
2022-12-01T14:37:02.879Z,102912.72
2022-12-01T14:39:35.967Z,102906.56
2022-12-01T14:42:11.181Z,102909.91
2022-12-01T14:44:48.941Z,102909.56
2022-12-01T14:47:22.475Z,102913.72
2022-12-01T14:50:01.558Z,102915.47
2022-12-01T14:52:27.839Z,102916.22
2022-12-01T14:54:57.881Z,102917.72
2022-12-01T14:57:47.575Z,102918.69
2022-12-01T15:00:23.086Z,102917.53
2022-12-01T15:02:59.802Z,102910.09
2022-12-01T15:05:28.821Z,102911.03
2022-12-01T15:08:33.233Z,102917.84
2022-12-01T15:10:54.880Z,102923.25
2022-12-01T15:13:30.527Z,102930.25
2022-12-01T15:15:59.474Z,102927.97
2022-12-01T15:18:34.679Z,102916.75
2022-12-01T15:21:13.685Z,102906.91
2022-12-01T15:23:55.488Z,102908.06
2022-12-01T15:26:24.464Z,102911.66
2022-12-01T15:29:04.556Z,102916.03
2022-12-01T15:31:34.920Z,102920.28
2022-12-01T15:34:01.947Z,102921.09
2022-12-01T15:36:28.522Z,102917.75
2022-12-01T15:38:55.416Z,102926.03
2022-12-01T15:41:30.986Z,102931.44
2022-12-01T15:44:01.861Z,102928.31
2022-12-01T15:46:34.456Z,102939.22
2022-12-01T15:49:08.385Z,102943.81
2022-12-01T15:51:35.046Z,102937.63
2022-12-01T15:54:02.509Z,102932.66
2022-12-01T15:56:33.208Z,102938.84
2022-12-01T15:59:16.717Z,102943.97
2022-12-01T16:01:44.266Z,102946.72
2022-12-01T16:04:18.791Z,102943.97
2022-12-01T16:07:03.643Z,102937.75
2022-12-01T16:09:37.401Z,102939.69
2022-12-01T16:12:13.072Z,102947.00
2022-12-01T16:14:49.759Z,102938.75
2022-12-01T16:17:17.097Z,102936.78
2022-12-01T16:19:45.362Z,102946.94
2022-12-01T16:22:11.614Z,102944.19
2022-12-01T16:24:45.669Z,102944.66
2022-12-01T16:27:31.638Z,102948.31
2022-12-01T16:30:01.959Z,102942.25
2022-12-01T16:32:40.438Z,102952.41
2022-12-01T16:35:27.600Z,102948.84
2022-12-01T16:37:54.814Z,102950.06
2022-12-01T16:40:24.138Z,102948.91
2022-12-01T16:42:50.628Z,102953.00
2022-12-01T16:45:18.804Z,102954.47
2022-12-01T16:47:47.720Z,102946.44
2022-12-01T16:50:19.075Z,102942.19
2022-12-01T16:52:46.081Z,102941.63
2022-12-01T16:55:24.800Z,102939.22
2022-12-01T16:57:51.190Z,102936.22
2022-12-01T17:00:17.854Z,102932.41
2022-12-01T17:02:44.350Z,102941.75
2022-12-01T17:05:11.702Z,102936.38
2022-12-01T17:07:38.065Z,102936.22
2022-12-01T17:10:05.460Z,102940.88
2022-12-01T17:12:31.818Z,102938.47
2022-12-01T17:14:58.186Z,102937.09
2022-12-01T17:17:24.551Z,102936.72
2022-12-01T17:19:54.212Z,102932.91
2022-12-01T17:22:21.046Z,102941.47
2022-12-01T17:24:47.641Z,102944.97
2022-12-01T17:27:14.137Z,102945.84
2022-12-01T17:29:45.652Z,102942.63
2022-12-01T17:32:13.808Z,102936.41
2022-12-01T17:34:40.204Z,102941.94
2022-12-01T17:37:06.982Z,102935.13
2022-12-01T17:39:33.596Z,102948.69
2022-12-01T17:42:00.130Z,102938.41
2022-12-01T17:44:26.710Z,102936.56
2022-12-01T17:46:53.091Z,102934.41
2022-12-01T17:49:19.539Z,102932.19
2022-12-01T17:51:45.910Z,102942.91
2022-12-01T17:54:12.441Z,102939.91
2022-12-01T17:56:38.925Z,102936.69
2022-12-01T17:59:05.376Z,102940.34
2022-12-01T18:01:31.997Z,102942.81
2022-12-01T18:03:58.904Z,102937.38
2022-12-01T18:06:26.682Z,102926.72
2022-12-01T18:08:53.550Z,102936.47
2022-12-01T18:11:20.547Z,102940.13
2022-12-01T18:13:49.291Z,102938.94
2022-12-01T18:16:21.275Z,102931.28
2022-12-01T18:18:48.227Z,102931.94
2022-12-01T18:21:16.703Z,102933.75
2022-12-01T18:23:51.285Z,102935.00
2022-12-01T18:26:19.003Z,102942.28
2022-12-01T18:28:45.561Z,102933.00
2022-12-01T18:31:14.802Z,102938.47
2022-12-01T18:33:42.987Z,102926.75
2022-12-01T18:36:12.851Z,102940.69
2022-12-01T18:38:39.657Z,102931.44
2022-12-01T18:41:06.039Z,102935.06
2022-12-01T18:43:32.605Z,102935.47
2022-12-01T18:45:59.719Z,102939.53
2022-12-01T18:48:26.812Z,102936.53
2022-12-01T18:50:59.090Z,102936.38
2022-12-01T18:53:25.837Z,102935.16
2022-12-01T18:55:52.151Z,102939.41
2022-12-01T18:58:18.479Z,102937.97
2022-12-01T19:00:44.958Z,102940.19
2022-12-01T19:03:11.496Z,102939.75
2022-12-01T19:05:38.855Z,102940.78
2022-12-01T19:08:06.400Z,102939.16
2022-12-01T19:10:34.964Z,102940.19
2022-12-01T19:13:01.355Z,102939.56
2022-12-01T19:15:27.732Z,102940.00
2022-12-01T19:17:54.917Z,102945.25
2022-12-01T19:20:21.306Z,102940.81
2022-12-01T19:22:47.974Z,102939.16
2022-12-01T19:25:14.558Z,102940.34
2022-12-01T19:27:41.232Z,102933.06
2022-12-01T19:30:08.081Z,102931.66
2022-12-01T19:32:34.566Z,102935.25
2022-12-01T19:35:00.862Z,102933.78
2022-12-01T19:37:27.268Z,102934.19
2022-12-01T19:39:53.590Z,102928.50
2022-12-01T19:42:19.954Z,102929.09
2022-12-01T19:44:46.435Z,102931.28
2022-12-01T19:47:13.974Z,102927.69
2022-12-01T19:49:42.881Z,102932.47
2022-12-01T19:52:09.225Z,102928.66
2022-12-01T19:54:37.548Z,102937.69
2022-12-01T19:57:03.988Z,102938.28
2022-12-01T19:59:30.326Z,102930.19
2022-12-01T20:02:02.207Z,102939.69
2022-12-01T20:04:30.660Z,102937.22
2022-12-01T20:06:57.099Z,102939.28
2022-12-01T20:09:23.480Z,102935.63
2022-12-01T20:11:49.914Z,102939.84
2022-12-01T20:14:16.311Z,102935.19
2022-12-01T20:16:42.708Z,102935.34
2022-12-01T20:19:10.446Z,102935.50
2022-12-01T20:21:44.861Z,102935.28
2022-12-01T20:24:13.958Z,102937.91
2022-12-01T20:26:46.685Z,102932.31
2022-12-01T20:29:16.639Z,102934.72
2022-12-01T20:31:45.335Z,102932.88
2022-12-01T20:34:18.227Z,102930.88
2022-12-01T20:36:44.849Z,102937.09
2022-12-01T20:39:12.138Z,102932.78
2022-12-01T20:41:40.176Z,102936.97
2022-12-01T20:44:07.995Z,102939.53
2022-12-01T20:46:36.489Z,102933.63
2022-12-01T20:49:04.691Z,102944.28
2022-12-01T20:51:34.003Z,102937.38
2022-12-01T20:56:48.596Z,102933.41
2022-12-01T20:59:14.970Z,102927.72
2022-12-01T21:01:41.439Z,102928.69
2022-12-01T21:04:10.751Z,102921.97
2022-12-01T21:06:37.154Z,102916.06
2022-12-01T21:09:04.564Z,102920.06
2022-12-01T21:11:54.939Z,102911.75
2022-12-01T21:14:28.111Z,102911.31
2022-12-01T21:16:58.892Z,102912.72
2022-12-01T21:20:05.265Z,102915.91
2022-12-01T21:22:31.802Z,102911.22
2022-12-01T21:25:15.668Z,102909.19
2022-12-01T21:27:42.238Z,102911.81
2022-12-01T21:30:21.784Z,102900.84
2022-12-01T21:32:49.661Z,102898.81
2022-12-01T21:35:24.779Z,102904.66
2022-12-01T21:37:58.009Z,102896.53
2022-12-01T21:40:26.807Z,102896.28
2022-12-01T21:42:53.278Z,102890.03
2022-12-01T21:45:29.309Z,102890.03
2022-12-01T21:48:00.534Z,102881.91
2022-12-01T21:50:27.312Z,102889.56
2022-12-01T21:52:53.778Z,102887.53
2022-12-01T21:55:20.010Z,102887.88
2022-12-01T21:57:53.164Z,102883.41
2022-12-01T22:00:30.310Z,102889.28
2022-12-01T22:03:08.898Z,102883.56
2022-12-01T22:05:40.402Z,102880.50
2022-12-01T22:08:29.108Z,102877.84
2022-12-01T22:11:15.998Z,102885.28
2022-12-01T22:13:49.574Z,102877.41
2022-12-01T22:16:28.326Z,102873.72
2022-12-01T22:19:00.977Z,102881.19
2022-12-01T22:21:31.859Z,102879.13
2022-12-01T22:24:04.591Z,102883.38
2022-12-01T22:26:31.866Z,102873.44
2022-12-01T22:28:59.741Z,102873.44
2022-12-01T22:31:27.771Z,102875.59
2022-12-01T22:34:03.387Z,102869.91
2022-12-01T22:36:33.481Z,102869.66
2022-12-01T22:39:00.603Z,102874.50
2022-12-01T22:41:28.662Z,102862.56
2022-12-01T22:44:00.462Z,102874.72
2022-12-01T22:46:34.003Z,102864.75
2022-12-01T22:49:23.970Z,102870.81
2022-12-01T22:52:01.234Z,102873.22
2022-12-01T22:54:32.084Z,102875.66
2022-12-01T22:57:07.602Z,102865.94
2022-12-01T22:59:36.618Z,102875.41
2022-12-01T23:02:24.877Z,102867.53
2022-12-01T23:04:59.557Z,102872.00
2022-12-01T23:07:30.319Z,102875.66
2022-12-01T23:10:02.219Z,102872.78
2022-12-01T23:12:31.459Z,102868.31
2022-12-01T23:15:07.381Z,102861.22
2022-12-01T23:17:35.611Z,102866.25
2022-12-01T23:20:21.774Z,102857.00
2022-12-01T23:22:49.823Z,102862.25
2022-12-01T23:25:19.428Z,102861.22
2022-12-01T23:27:50.765Z,102860.44
2022-12-01T23:30:20.471Z,102856.75
2022-12-01T23:33:00.810Z,102855.97
2022-12-01T23:35:27.281Z,102854.34
2022-12-01T23:37:54.114Z,102855.97
2022-12-01T23:40:30.935Z,102855.97
2022-12-01T23:43:18.488Z,102848.50
2022-12-01T23:45:51.395Z,102855.59
2022-12-01T23:48:25.099Z,102853.75
2022-12-01T23:50:54.239Z,102847.69
2022-12-01T23:53:32.253Z,102841.44
2022-12-01T23:56:07.148Z,102850.94
2022-12-01T23:58:34.169Z,102844.84
